Time;durP1;ratioP1;P1;durP2;ratioP2;P2;SDS_P1;SDS_P2;PMS_P1;PMS_P2;Temp;Humidity;BMP_temperature;BMP_pressure;BME280_temperature;BME280_humidity;BME280_pressure;Samples;Min_cycle;Max_cycle;Signal;HPM_P1;HPM_P2
2021/07/20 00:00:35;;;;;;;3.40;3.10;;;14.30;99.90;;;;;;5033028;28;20253;-74
2021/07/20 00:03:02;;;;;;;3.00;2.63;;;14.20;99.90;;;;;;5030507;28;20189;-74
2021/07/20 00:05:29;;;;;;;5.17;2.87;;;14.20;99.90;;;;;;5029063;28;20593;-74
2021/07/20 00:07:57;;;;;;;3.07;2.60;;;14.10;99.90;;;;;;5030673;28;20416;-74
2021/07/20 00:10:34;;;;;;;3.63;3.00;;;14.10;99.90;;;;;;5031355;28;20816;-74
2021/07/20 00:13:00;;;;;;;3.90;3.13;;;14.00;99.90;;;;;;5027088;28;20428;-74
2021/07/20 00:15:27;;;;;;;3.17;2.90;;;13.90;99.90;;;;;;5029851;28;20835;-74
2021/07/20 00:17:56;;;;;;;3.10;2.90;;;13.90;99.90;;;;;;5030921;28;20502;-74
2021/07/20 00:20:24;;;;;;;4.10;3.70;;;13.80;99.90;;;;;;5031579;28;20898;-73
2021/07/20 00:22:50;;;;;;;2.80;2.70;;;13.80;99.90;;;;;;5026491;28;20428;-74
2021/07/20 00:25:17;;;;;;;3.23;2.93;;;13.70;99.90;;;;;;5032037;28;20967;-74
2021/07/20 00:27:43;;;;;;;8.10;4.23;;;13.70;99.90;;;;;;5027617;28;20451;-74
2021/07/20 00:30:10;;;;;;;3.50;3.20;;;13.60;99.90;;;;;;5028931;28;20428;-74
2021/07/20 00:32:36;;;;;;;3.60;3.30;;;13.50;99.90;;;;;;5030380;28;20453;-74
2021/07/20 00:35:03;;;;;;;3.93;2.90;;;13.40;99.90;;;;;;5029353;28;20429;-74
2021/07/20 00:37:29;;;;;;;4.03;3.07;;;13.40;99.90;;;;;;5029698;28;20440;-73
2021/07/20 00:39:55;;;;;;;4.97;3.77;;;13.40;99.90;;;;;;5028625;28;20432;-74
2021/07/20 00:42:21;;;;;;;4.80;3.50;;;13.30;99.90;;;;;;5029569;28;20177;-73
2021/07/20 00:44:46;;;;;;;4.77;3.53;;;13.30;99.90;;;;;;5029667;28;20182;-74
2021/07/20 00:47:12;;;;;;;3.50;3.20;;;13.30;99.90;;;;;;5031824;28;20184;-74
2021/07/20 00:49:37;;;;;;;2.90;2.67;;;13.30;99.90;;;;;;5033077;28;20194;-74
2021/07/20 00:52:04;;;;;;;2.93;2.73;;;13.20;99.90;;;;;;5025816;28;20201;-74
2021/07/20 00:54:30;;;;;;;3.43;3.20;;;13.10;99.90;;;;;;5032261;28;20174;-73
2021/07/20 00:56:57;;;;;;;3.50;3.20;;;13.10;99.90;;;;;;5027853;28;20448;-73
2021/07/20 00:59:23;;;;;;;3.50;3.20;;;13.00;99.90;;;;;;5026613;28;20436;-74
2021/07/20 01:01:49;;;;;;;3.57;3.27;;;13.00;99.90;;;;;;5027079;28;20437;-73
2021/07/20 01:04:16;;;;;;;3.60;3.30;;;13.00;99.90;;;;;;5026524;28;20436;-74
2021/07/20 01:06:43;;;;;;;4.10;3.00;;;12.90;99.90;;;;;;5028436;28;20647;-74
2021/07/20 01:09:10;;;;;;;3.33;3.10;;;12.80;99.90;;;;;;5028809;28;20463;-74
2021/07/20 01:11:36;;;;;;;4.83;3.00;;;12.80;99.90;;;;;;5023506;28;20955;-73
2021/07/20 01:14:03;;;;;;;3.50;3.20;;;12.90;99.90;;;;;;5025604;28;20452;-74
2021/07/20 01:16:32;;;;;;;4.50;2.90;;;12.80;99.90;;;;;;5030331;28;20511;-74
2021/07/20 01:18:59;;;;;;;3.03;2.83;;;12.80;99.90;;;;;;5039493;28;20460;-74
2021/07/20 01:21:27;;;;;;;2.87;2.67;;;12.80;99.90;;;;;;5031327;28;20956;-73
2021/07/20 01:23:56;;;;;;;3.63;3.43;;;12.70;99.90;;;;;;5024284;28;20429;-74
2021/07/20 01:26:22;;;;;;;3.73;3.23;;;12.70;99.90;;;;;;5030087;28;20444;-73
2021/07/20 01:28:48;;;;;;;3.30;3.10;;;12.70;99.90;;;;;;5024455;28;20437;-74
2021/07/20 01:31:22;;;;;;;4.37;3.97;;;12.60;99.90;;;;;;5025448;28;20535;-73
2021/07/20 01:33:55;;;;;;;7.30;3.23;;;12.60;99.90;;;;;;5026574;28;20429;-73
2021/07/20 01:36:22;;;;;;;2.80;2.60;;;12.60;99.90;;;;;;5032082;28;20408;-74
2021/07/20 01:38:49;;;;;;;4.93;3.67;;;12.50;99.90;;;;;;5026071;28;20429;-73
2021/07/20 01:41:16;;;;;;;3.50;3.23;;;12.50;99.90;;;;;;5025476;28;20443;-74
2021/07/20 01:43:54;;;;;;;4.30;3.40;;;12.50;99.90;;;;;;5016939;28;20438;-73
2021/07/20 01:46:21;;;;;;;3.57;3.27;;;12.50;99.90;;;;;;5027517;28;20718;-74
2021/07/20 01:48:50;;;;;;;4.23;3.90;;;12.50;99.90;;;;;;5027532;28;20448;-73
2021/07/20 01:51:18;;;;;;;3.67;3.33;;;12.40;99.90;;;;;;5029443;28;20464;-73
2021/07/20 01:53:44;;;;;;;3.43;3.13;;;12.50;99.90;;;;;;5026400;28;20494;-74
2021/07/20 01:56:11;;;;;;;3.00;2.80;;;12.40;99.90;;;;;;5025555;28;20420;-73
2021/07/20 01:58:42;;;;;;;4.90;2.83;;;12.40;99.90;;;;;;5028795;28;20206;-74
2021/07/20 02:01:16;;;;;;;3.90;3.70;;;12.40;99.90;;;;;;5029860;28;20431;-74
2021/07/20 02:09:06;;;;;;;3.20;3.00;;;12.30;99.90;;;;;;5028129;28;20427;-74
2021/07/20 02:11:36;;;;;;;3.80;3.50;;;12.20;99.90;;;;;;5026365;28;20909;-74
2021/07/20 02:14:05;;;;;;;3.60;3.20;;;12.20;99.90;;;;;;5038190;28;20944;-73
2021/07/20 02:16:43;;;;;;;3.03;2.77;;;12.20;99.90;;;;;;5028086;28;20750;-74
2021/07/20 02:19:15;;;;;;;5.40;3.70;;;12.20;99.90;;;;;;5025948;28;20957;-74
2021/07/20 02:21:47;;;;;;;3.87;3.57;;;12.10;99.90;;;;;;5026950;28;20490;-73
2021/07/20 02:24:16;;;;;;;6.37;3.73;;;12.10;99.90;;;;;;5027540;28;20420;-74
2021/07/20 02:26:42;;;;;;;3.90;3.60;;;12.10;99.90;;;;;;5022774;28;20425;-73
2021/07/20 02:29:11;;;;;;;3.53;3.20;;;12.10;99.90;;;;;;5027483;28;20455;-74
2021/07/20 02:31:38;;;;;;;3.57;3.37;;;12.00;99.90;;;;;;5020598;28;20500;-73
2021/07/20 02:34:04;;;;;;;3.50;3.10;;;12.00;99.90;;;;;;5029802;28;20441;-74
2021/07/20 02:36:31;;;;;;;4.57;4.17;;;12.00;99.90;;;;;;5024514;28;20427;-74
2021/07/20 02:38:57;;;;;;;3.50;3.20;;;11.90;99.90;;;;;;5029906;28;20515;-74
2021/07/20 02:41:25;;;;;;;3.53;3.20;;;11.90;99.90;;;;;;5028290;28;20921;-73
2021/07/20 02:43:52;;;;;;;3.60;3.30;;;11.90;99.90;;;;;;5030640;28;20439;-73
2021/07/20 02:46:18;;;;;;;4.50;3.33;;;12.00;99.90;;;;;;5029640;28;20931;-74
2021/07/20 02:48:46;;;;;;;3.90;3.60;;;11.90;99.90;;;;;;5032094;28;20791;-74
2021/07/20 02:51:14;;;;;;;4.00;3.70;;;11.90;99.90;;;;;;5028137;28;20452;-74
2021/07/20 02:53:42;;;;;;;6.43;3.83;;;11.90;99.90;;;;;;5031244;28;20452;-74
2021/07/20 02:56:11;;;;;;;4.10;3.80;;;11.80;99.90;;;;;;5032044;28;20438;-74
2021/07/20 02:58:38;;;;;;;4.07;3.77;;;11.80;99.90;;;;;;5030523;28;20428;-74
2021/07/20 03:01:05;;;;;;;3.77;3.47;;;11.90;99.90;;;;;;5027981;28;20474;-73
2021/07/20 03:03:30;;;;;;;4.03;3.57;;;11.90;99.90;;;;;;5032142;28;20428;-73
2021/07/20 03:05:58;;;;;;;4.63;3.73;;;11.90;99.90;;;;;;5032436;28;20616;-73
2021/07/20 03:08:29;;;;;;;4.67;4.20;;;12.00;99.90;;;;;;5032772;28;20182;-73
2021/07/20 03:11:03;;;;;;;4.60;4.20;;;12.00;99.90;;;;;;5025901;28;20471;-74
2021/07/20 03:13:32;;;;;;;3.77;3.47;;;12.00;99.90;;;;;;5029745;28;20432;-74
2021/07/20 03:16:01;;;;;;;7.50;3.77;;;12.00;99.90;;;;;;5033602;28;20471;-73
2021/07/20 03:18:29;;;;;;;3.83;3.40;;;12.00;99.90;;;;;;5031629;28;20893;-74
2021/07/20 03:20:57;;;;;;;4.33;3.93;;;12.10;99.90;;;;;;5031283;28;20428;-74
2021/07/20 03:23:23;;;;;;;5.00;4.50;;;12.10;99.90;;;;;;5026242;28;20944;-74
2021/07/20 03:25:50;;;;;;;4.03;3.63;;;12.10;99.90;;;;;;5031935;28;20451;-73
2021/07/20 03:28:17;;;;;;;5.90;4.40;;;12.10;99.90;;;;;;5027852;28;20174;-74
2021/07/20 03:30:43;;;;;;;4.80;3.87;;;12.10;99.90;;;;;;5029191;28;20434;-73
2021/07/20 03:33:11;;;;;;;4.60;4.30;;;12.10;99.90;;;;;;5024853;28;20519;-74
2021/07/20 03:35:38;;;;;;;5.63;3.60;;;12.10;99.90;;;;;;5031433;28;20925;-74
2021/07/20 03:38:04;;;;;;;4.03;3.73;;;12.10;99.90;;;;;;5031673;28;20901;-73
2021/07/20 03:40:30;;;;;;;6.87;4.80;;;12.10;99.90;;;;;;5025194;28;20886;-73
2021/07/20 03:42:57;;;;;;;4.20;3.90;;;12.00;99.90;;;;;;5029701;28;20436;-73
2021/07/20 03:45:23;;;;;;;4.30;3.90;;;11.90;99.90;;;;;;5024755;28;20185;-74
2021/07/20 03:47:49;;;;;;;4.93;4.40;;;11.90;99.90;;;;;;5032176;28;20894;-73
2021/07/20 03:50:19;;;;;;;3.80;3.40;;;11.90;99.90;;;;;;5033445;28;20186;-74
2021/07/20 03:52:45;;;;;;;5.37;4.63;;;11.90;99.90;;;;;;5025372;28;20472;-74
2021/07/20 03:55:16;;;;;;;7.67;4.37;;;11.90;99.90;;;;;;5032442;28;20905;-74
2021/07/20 03:57:42;;;;;;;5.27;4.67;;;11.90;99.90;;;;;;5038701;28;20559;-73
2021/07/20 04:00:08;;;;;;;4.50;4.20;;;12.00;99.90;;;;;;5028979;28;20431;-73
2021/07/20 04:02:46;;;;;;;5.13;4.47;;;12.10;99.90;;;;;;5027962;28;20482;-74
2021/07/20 04:05:14;;;;;;;4.80;4.40;;;12.10;99.90;;;;;;5030836;28;20435;-74
2021/07/20 04:07:42;;;;;;;4.10;3.60;;;12.20;99.90;;;;;;5028728;28;20763;-74
2021/07/20 04:10:09;;;;;;;4.67;4.07;;;12.20;99.90;;;;;;5031174;28;20436;-74
2021/07/20 04:12:35;;;;;;;5.63;5.10;;;12.30;99.90;;;;;;5028369;28;20771;-73
2021/07/20 04:15:02;;;;;;;5.80;5.10;;;12.40;99.90;;;;;;5028959;28;20475;-74
2021/07/20 04:17:29;;;;;;;4.67;4.27;;;12.50;99.90;;;;;;5028289;28;20424;-74
2021/07/20 04:19:56;;;;;;;4.97;4.47;;;12.50;99.90;;;;;;5027189;28;20439;-74
2021/07/20 04:22:22;;;;;;;5.00;4.60;;;12.60;99.90;;;;;;5027831;28;20434;-73
2021/07/20 04:24:47;;;;;;;5.13;4.63;;;12.60;99.90;;;;;;5031237;28;20497;-73
2021/07/20 04:27:15;;;;;;;4.33;3.80;;;12.60;99.90;;;;;;5029178;28;20193;-74
2021/07/20 04:29:42;;;;;;;6.07;5.33;;;12.70;99.90;;;;;;5030932;28;20267;-74
2021/07/20 04:32:09;;;;;;;5.97;5.33;;;12.70;99.90;;;;;;5029518;28;20459;-74
2021/07/20 04:34:39;;;;;;;4.80;4.40;;;12.80;99.90;;;;;;5029038;28;20432;-74
2021/07/20 04:37:09;;;;;;;7.30;4.90;;;12.80;99.90;;;;;;5025742;28;20826;-73
2021/07/20 04:39:36;;;;;;;6.70;5.33;;;12.80;99.90;;;;;;5027277;28;20429;-75
2021/07/20 04:42:03;;;;;;;5.67;5.23;;;12.80;99.90;;;;;;5030015;28;20430;-74
2021/07/20 04:44:30;;;;;;;7.03;4.90;;;12.90;99.90;;;;;;5028375;28;20929;-74
2021/07/20 04:46:56;;;;;;;5.20;4.70;;;12.90;99.90;;;;;;5026466;28;20498;-74
2021/07/20 04:49:21;;;;;;;5.23;4.77;;;13.00;99.90;;;;;;5026450;28;20452;-74
2021/07/20 04:51:48;;;;;;;4.70;4.13;;;13.10;99.90;;;;;;5025643;28;20463;-73
2021/07/20 04:54:17;;;;;;;6.10;4.93;;;13.10;99.90;;;;;;5023937;28;20173;-74
2021/07/20 04:56:45;;;;;;;5.40;4.43;;;13.20;99.90;;;;;;5029000;28;20913;-73
2021/07/20 04:59:14;;;;;;;5.50;4.80;;;13.30;99.90;;;;;;5025870;28;20424;-74
2021/07/20 05:01:41;;;;;;;5.27;4.87;;;13.30;99.90;;;;;;5026657;28;20440;-74
2021/07/20 05:04:08;;;;;;;7.23;4.90;;;13.40;99.90;;;;;;5027731;28;20950;-74
2021/07/20 05:06:36;;;;;;;5.40;5.00;;;13.50;99.90;;;;;;5028952;28;20441;-74
2021/07/20 05:09:04;;;;;;;5.70;5.20;;;13.50;99.90;;;;;;5030748;28;20424;-74
2021/07/20 05:11:30;;;;;;;6.90;4.80;;;13.60;99.90;;;;;;5027652;28;20484;-74
2021/07/20 05:13:56;;;;;;;5.87;5.10;;;13.60;99.90;;;;;;5027009;28;20514;-74
2021/07/20 05:16:21;;;;;;;6.63;5.57;;;13.60;99.90;;;;;;5026957;28;20440;-74
2021/07/20 05:18:48;;;;;;;7.30;5.03;;;13.70;99.90;;;;;;5027966;28;20759;-74
2021/07/20 05:21:16;;;;;;;4.60;4.30;;;13.70;99.90;;;;;;5030167;28;20212;-74
2021/07/20 05:23:42;;;;;;;4.83;4.47;;;13.70;99.90;;;;;;5028184;28;20552;-74
2021/07/20 05:26:11;;;;;;;5.80;5.20;;;13.80;99.90;;;;;;5023787;28;20441;-74
2021/07/20 05:28:37;;;;;;;7.30;5.43;;;13.80;99.90;;;;;;5024625;28;20440;-74
2021/07/20 05:31:05;;;;;;;6.43;5.03;;;14.00;99.90;;;;;;5026504;28;20460;-74
2021/07/20 05:33:32;;;;;;;6.07;5.20;;;14.10;99.90;;;;;;5023618;28;20465;-74
2021/07/20 05:36:00;;;;;;;8.00;5.20;;;14.10;99.90;;;;;;5027706;28;20488;-74
2021/07/20 05:38:26;;;;;;;5.53;4.90;;;14.20;99.90;;;;;;5030300;28;20393;-74
2021/07/20 05:40:54;;;;;;;10.67;5.47;;;14.30;99.90;;;;;;5022242;28;20925;-74
2021/07/20 05:43:21;;;;;;;8.80;5.07;;;14.50;99.90;;;;;;5019376;28;20476;-74
2021/07/20 05:45:48;;;;;;;5.30;4.67;;;14.60;99.90;;;;;;5021387;28;20432;-74
2021/07/20 05:48:19;;;;;;;6.67;5.63;;;14.70;99.90;;;;;;5007647;28;20426;-74
2021/07/20 05:50:49;;;;;;;9.67;4.60;;;14.80;99.90;;;;;;5016174;28;20504;-74
2021/07/20 05:53:16;;;;;;;8.97;4.40;;;15.00;99.90;;;;;;5012933;28;21397;-74
2021/07/20 05:55:47;;;;;;;6.10;5.60;;;15.20;99.90;;;;;;5009196;28;20535;-74
2021/07/20 05:58:13;;;;;;;8.23;6.07;;;15.30;99.90;;;;;;5020556;28;21036;-74
2021/07/20 06:00:40;;;;;;;27.67;6.53;;;15.20;99.90;;;;;;5018706;28;20449;-74
2021/07/20 06:03:06;;;;;;;7.07;5.37;;;15.30;99.90;;;;;;5019996;28;20422;-74
2021/07/20 06:05:32;;;;;;;7.30;5.70;;;15.40;99.90;;;;;;5026377;28;20437;-74
2021/07/20 06:07:58;;;;;;;7.70;5.90;;;15.50;99.90;;;;;;5018248;28;20921;-74
2021/07/20 06:10:24;;;;;;;4.50;4.17;;;15.70;99.90;;;;;;5019587;28;20441;-74
2021/07/20 06:12:52;;;;;;;5.93;5.33;;;15.70;99.90;;;;;;5019450;28;20485;-73
2021/07/20 06:15:18;;;;;;;5.50;5.00;;;15.80;99.90;;;;;;5025577;28;20425;-74
2021/07/20 06:17:46;;;;;;;5.00;4.50;;;16.00;99.90;;;;;;5018275;28;20513;-74
2021/07/20 06:20:12;;;;;;;4.47;4.00;;;16.20;99.90;;;;;;5023045;28;20503;-74
2021/07/20 06:22:49;;;;;;;7.10;4.37;;;16.30;99.90;;;;;;5016757;28;20460;-74
2021/07/20 06:25:16;;;;;;;6.27;3.63;;;16.10;99.90;;;;;;5030544;28;20417;-74
2021/07/20 06:27:43;;;;;;;4.83;4.27;;;16.10;99.90;;;;;;5031702;28;20424;-74
2021/07/20 06:30:10;;;;;;;3.77;3.43;;;16.20;99.90;;;;;;5030228;28;20890;-74
2021/07/20 06:32:36;;;;;;;6.90;3.83;;;16.20;99.90;;;;;;5026570;28;20459;-73
2021/07/20 06:35:02;;;;;;;6.83;4.23;;;16.20;99.90;;;;;;5024421;28;20426;-74
2021/07/20 06:37:28;;;;;;;3.60;3.30;;;16.20;99.90;;;;;;5028375;28;20436;-74
2021/07/20 06:39:55;;;;;;;4.90;4.50;;;16.30;99.90;;;;;;5030693;28;20417;-74
2021/07/20 06:42:22;;;;;;;4.67;4.27;;;16.30;99.90;;;;;;5030410;28;20443;-74
2021/07/20 06:44:49;;;;;;;3.57;3.37;;;16.30;99.90;;;;;;5029927;28;20757;-74
2021/07/20 06:47:17;;;;;;;4.20;3.70;;;16.40;99.90;;;;;;5019653;28;20425;-74
2021/07/20 06:49:47;;;;;;;5.03;4.63;;;16.50;99.90;;;;;;5015537;28;20502;-74
2021/07/20 06:52:15;;;;;;;7.90;5.30;;;16.70;99.90;;;;;;5005159;28;20457;-74
2021/07/20 06:54:42;;;;;;;3.87;3.57;;;16.80;99.90;;;;;;5022625;28;20428;-74
2021/07/20 06:57:13;;;;;;;4.17;3.87;;;16.90;99.90;;;;;;5014436;28;20442;-74
2021/07/20 06:59:40;;;;;;;4.93;3.77;;;17.00;99.90;;;;;;5023228;28;20421;-74
2021/07/20 07:02:10;;;;;;;8.27;4.30;;;17.00;99.90;;;;;;5021648;28;20902;-74
2021/07/20 07:04:49;;;;;;;3.73;3.20;;;16.90;99.90;;;;;;5022707;28;20428;-74
2021/07/20 07:07:18;;;;;;;5.17;3.77;;;16.90;99.90;;;;;;5019689;28;20416;-74
2021/07/20 07:09:46;;;;;;;4.67;3.33;;;17.00;99.90;;;;;;5013329;28;20437;-74
2021/07/20 07:12:12;;;;;;;5.20;3.50;;;17.10;99.90;;;;;;5023613;28;20938;-74
2021/07/20 07:14:39;;;;;;;5.10;4.40;;;17.20;99.90;;;;;;5025440;28;20467;-74
2021/07/20 07:17:06;;;;;;;5.27;4.40;;;17.20;99.90;;;;;;5022800;28;20201;-74
2021/07/20 07:19:32;;;;;;;6.43;3.47;;;17.20;99.90;;;;;;5025632;28;20964;-74
2021/07/20 07:21:58;;;;;;;4.90;3.27;;;17.20;99.90;;;;;;5021730;28;20429;-74
2021/07/20 07:24:25;;;;;;;4.70;3.20;;;17.30;99.90;;;;;;5025349;28;20185;-74
2021/07/20 07:26:53;;;;;;;4.57;4.07;;;17.30;99.90;;;;;;5027668;28;20192;-74
2021/07/20 07:29:20;;;;;;;4.27;2.60;;;17.40;99.90;;;;;;5024264;28;20804;-74
2021/07/20 07:31:47;;;;;;;3.40;3.03;;;17.50;99.90;;;;;;5017617;28;20808;-74
2021/07/20 07:34:14;;;;;;;3.60;3.40;;;17.70;99.90;;;;;;5012186;28;20608;-74
2021/07/20 07:36:43;;;;;;;5.97;3.80;;;17.90;99.90;;;;;;5017360;28;20432;-74
2021/07/20 07:39:11;;;;;;;3.90;3.10;;;18.00;99.90;;;;;;5019639;28;20890;-74
2021/07/20 07:41:39;;;;;;;4.00;3.10;;;17.90;99.90;;;;;;5036295;28;20428;-74
2021/07/20 07:44:09;;;;;;;3.27;2.97;;;17.90;99.90;;;;;;5027416;28;20433;-74
2021/07/20 07:46:38;;;;;;;5.43;4.53;;;17.90;99.90;;;;;;5023167;28;20463;-74
2021/07/20 07:49:05;;;;;;;5.70;3.67;;;17.90;99.90;;;;;;5029951;28;20776;-74
2021/07/20 07:51:31;;;;;;;3.97;3.67;;;18.00;99.90;;;;;;5026608;28;20487;-74
2021/07/20 07:54:00;;;;;;;3.97;3.57;;;17.90;99.90;;;;;;5015865;28;20429;-74
2021/07/20 07:56:27;;;;;;;4.30;3.60;;;18.00;99.90;;;;;;5014835;28;20423;-74
2021/07/20 07:58:56;;;;;;;4.17;3.77;;;18.10;99.90;;;;;;5026738;28;20466;-74
2021/07/20 08:01:24;;;;;;;6.40;3.43;;;18.20;99.90;;;;;;5020836;28;20889;-74
2021/07/20 08:03:51;;;;;;;3.90;3.33;;;18.20;99.90;;;;;;5023329;28;20452;-74
2021/07/20 08:06:21;;;;;;;6.50;3.60;;;18.30;99.90;;;;;;5024853;28;20428;-73
2021/07/20 08:08:51;;;;;;;6.90;4.70;;;18.30;99.90;;;;;;5028640;28;20447;-74
2021/07/20 08:11:16;;;;;;;4.60;4.30;;;18.40;99.90;;;;;;5020109;28;20457;-74
2021/07/20 08:13:43;;;;;;;3.90;3.50;;;18.50;99.90;;;;;;5022430;28;20740;-74
2021/07/20 08:16:13;;;;;;;7.87;5.23;;;18.70;99.90;;;;;;5024366;28;20182;-74
2021/07/20 08:18:40;;;;;;;5.40;4.20;;;18.70;99.90;;;;;;5025146;28;20430;-74
2021/07/20 08:21:07;;;;;;;4.10;3.70;;;18.70;99.90;;;;;;5023931;28;20895;-73
2021/07/20 08:23:35;;;;;;;6.00;4.20;;;18.70;99.90;;;;;;5015288;28;20426;-74
2021/07/20 08:26:13;;;;;;;5.53;5.03;;;18.90;99.90;;;;;;5020290;28;20969;-74
2021/07/20 08:28:59;;;;;;;5.80;4.10;;;18.90;99.90;;;;;;5031263;28;20443;-74
2021/07/20 08:31:27;;;;;;;5.83;4.20;;;19.00;99.90;;;;;;5024154;28;20484;-74
2021/07/20 08:33:57;;;;;;;6.20;4.50;;;19.10;99.90;;;;;;5026435;28;21020;-75
2021/07/20 08:36:24;;;;;;;4.20;3.80;;;19.20;99.90;;;;;;5025761;28;20911;-75
2021/07/20 08:38:54;;;;;;;5.13;3.67;;;19.20;99.90;;;;;;5018478;28;20523;-75
2021/07/20 08:41:53;;;;;;;5.83;3.93;;;19.30;99.90;;;;;;5023513;28;20436;-74
2021/07/20 08:44:36;;;;;;;5.10;3.90;;;19.30;99.90;;;;;;5030483;28;20420;-74
2021/07/20 08:47:31;;;;;;;4.90;4.33;;;19.30;99.90;;;;;;5026323;28;20421;-74
2021/07/20 08:50:19;;;;;;;6.73;3.73;;;19.30;99.90;;;;;;5018684;28;20456;-74
2021/07/20 08:52:50;;;;;;;4.07;3.63;;;19.40;99.90;;;;;;5023190;28;20510;-74
2021/07/20 08:55:24;;;;;;;4.07;3.70;;;19.50;99.90;;;;;;5019925;28;20774;-74
2021/07/20 08:57:56;;;;;;;4.97;4.00;;;19.50;99.90;;;;;;5020247;28;20802;-74
2021/07/20 09:00:24;;;;;;;6.93;3.77;;;19.60;99.90;;;;;;5012392;28;21119;-74
2021/07/20 09:03:36;;;;;;;3.93;3.50;;;19.70;99.90;;;;;;5013890;28;20460;-74
2021/07/20 09:06:19;;;;;;;3.10;2.80;;;19.80;99.90;;;;;;4984126;28;20457;-75
2021/07/20 09:08:57;;;;;;;4.90;3.93;;;20.10;99.90;;;;;;5013841;28;20440;-75
2021/07/20 09:11:23;;;;;;;5.30;4.10;;;20.30;99.90;;;;;;5024813;28;20464;-74
2021/07/20 09:14:16;;;;;;;4.67;3.00;;;20.20;99.90;;;;;;5024575;28;20444;-75
2021/07/20 09:16:49;;;;;;;3.87;3.33;;;20.30;99.90;;;;;;5017371;28;20252;-74
2021/07/20 09:19:15;;;;;;;3.57;3.27;;;20.40;99.90;;;;;;5021573;28;20417;-75
2021/07/20 09:21:48;;;;;;;3.50;3.20;;;20.40;99.90;;;;;;5024684;28;20435;-73
2021/07/20 09:24:31;;;;;;;8.30;5.03;;;20.20;99.90;;;;;;5023872;28;20179;-75
2021/07/20 09:27:10;;;;;;;7.60;4.33;;;20.00;99.90;;;;;;5012172;28;20428;-74
2021/07/20 09:29:38;;;;;;;5.13;3.90;;;19.80;99.90;;;;;;5028296;28;20424;-74
2021/07/20 09:32:32;;;;;;;4.53;4.13;;;19.60;99.90;;;;;;5016402;28;20521;-75
2021/07/20 09:35:04;;;;;;;5.00;3.23;;;19.50;99.90;;;;;;5026215;28;20795;-74
2021/07/20 09:37:41;;;;;;;6.47;4.50;;;19.50;99.90;;;;;;5023030;28;20477;-75
2021/07/20 09:40:23;;;;;;;6.00;4.53;;;19.40;99.90;;;;;;5018915;28;20417;-75
2021/07/20 09:43:04;;;;;;;5.40;3.77;;;19.30;99.90;;;;;;5025950;28;20428;-75
2021/07/20 09:45:40;;;;;;;6.50;4.63;;;19.20;99.90;;;;;;5023867;28;20472;-74
2021/07/20 09:48:36;;;;;;;5.83;5.13;;;19.20;99.90;;;;;;5030196;28;20515;-75
2021/07/20 09:51:35;;;;;;;4.70;4.20;;;19.20;99.90;;;;;;5020996;28;20491;-75
2021/07/20 09:54:30;;;;;;;3.70;3.37;;;19.20;99.90;;;;;;5027383;28;20408;-74
2021/07/20 09:57:26;;;;;;;5.20;3.47;;;19.40;99.90;;;;;;5024825;28;20735;-74
2021/07/20 10:00:00;;;;;;;5.33;4.70;;;19.60;99.90;;;;;;5024140;28;20434;-74
2021/07/20 10:02:45;;;;;;;7.13;3.93;;;19.90;99.90;;;;;;5013059;28;20436;-75
2021/07/20 10:05:22;;;;;;;5.50;3.47;;;20.20;99.90;;;;;;5020076;28;20438;-74
2021/07/20 10:08:06;;;;;;;5.17;3.90;;;20.40;99.90;;;;;;5009475;28;20491;-74
2021/07/20 10:11:02;;;;;;;4.30;4.00;;;20.50;99.90;;;;;;5023760;28;20459;-74
2021/07/20 10:13:37;;;;;;;7.30;5.90;;;20.60;99.90;;;;;;5022473;28;20433;-75
2021/07/20 10:16:26;;;;;;;6.60;4.20;;;20.60;99.90;;;;;;5024724;28;20520;-74
2021/07/20 10:19:04;;;;;;;4.53;4.13;;;20.70;99.90;;;;;;5026162;28;20965;-74
2021/07/20 10:21:34;;;;;;;5.10;4.60;;;20.50;99.90;;;;;;5029615;28;20432;-75
2021/07/20 10:24:15;;;;;;;5.83;4.50;;;20.40;99.90;;;;;;5012936;28;20432;-75
2021/07/20 10:26:53;;;;;;;7.80;5.40;;;20.40;99.90;;;;;;5019106;28;20434;-75
2021/07/20 10:29:39;;;;;;;4.80;4.33;;;20.30;99.90;;;;;;5029396;28;20428;-75
2021/07/20 10:32:39;;;;;;;7.60;4.07;;;20.40;99.90;;;;;;5021448;28;20480;-75
2021/07/20 10:35:13;;;;;;;6.07;4.40;;;20.40;99.90;;;;;;5031038;28;20790;-74
2021/07/20 10:37:44;;;;;;;6.70;4.60;;;20.50;99.90;;;;;;5027536;28;20421;-75
2021/07/20 10:40:15;;;;;;;8.00;4.90;;;20.60;99.90;;;;;;5015949;28;20431;-75
2021/07/20 10:43:13;;;;;;;5.90;4.90;;;20.60;99.90;;;;;;5016472;28;20845;-75
2021/07/20 10:45:41;;;;;;;5.70;4.50;;;20.50;99.90;;;;;;5020276;28;20432;-75
2021/07/20 10:48:18;;;;;;;7.70;5.03;;;20.60;99.90;;;;;;5017920;28;20444;-76
2021/07/20 10:51:24;;;;;;;5.00;4.37;;;20.90;99.90;;;;;;5022621;28;20913;-76
2021/07/20 10:54:13;;;;;;;4.43;3.93;;;21.50;99.90;;;;;;5022866;28;20921;-76
2021/07/20 10:56:41;;;;;;;5.30;4.07;;;22.10;99.90;;;;;;5025687;28;20456;-76
2021/07/20 10:59:34;;;;;;;5.20;4.50;;;22.30;99.90;;;;;;5022296;28;20919;-75
2021/07/20 11:02:12;;;;;;;6.13;4.23;;;21.60;99.90;;;;;;5019882;28;20428;-75
2021/07/20 11:04:54;;;;;;;5.10;4.70;;;21.30;99.90;;;;;;5026906;28;20788;-75
2021/07/20 11:07:29;;;;;;;4.83;4.40;;;21.60;99.90;;;;;;5020639;28;20440;-76
2021/07/20 11:10:01;;;;;;;4.77;4.37;;;22.00;99.90;;;;;;5028744;28;20424;-75
2021/07/20 11:12:29;;;;;;;5.47;4.63;;;22.40;99.90;;;;;;5024376;28;20460;-76
2021/07/20 11:14:57;;;;;;;4.80;4.10;;;22.70;99.90;;;;;;5031077;28;20486;-76
2021/07/20 11:17:23;;;;;;;5.30;3.97;;;23.10;99.90;;;;;;5030879;28;20428;-76
2021/07/20 11:19:51;;;;;;;6.10;4.90;;;23.00;99.90;;;;;;5025003;28;20508;-76
2021/07/20 11:22:18;;;;;;;6.20;4.20;;;22.90;99.90;;;;;;5019037;28;20426;-76
2021/07/20 11:24:45;;;;;;;4.60;3.90;;;22.50;99.90;;;;;;5017722;28;20843;-75
2021/07/20 11:27:13;;;;;;;7.13;3.93;;;22.40;99.90;;;;;;5020071;28;20452;-76
2021/07/20 11:29:40;;;;;;;5.40;4.33;;;21.90;99.90;;;;;;5028203;28;20440;-75
2021/07/20 11:32:11;;;;;;;4.03;3.50;;;21.80;99.90;;;;;;5024887;28;20459;-76
2021/07/20 11:34:42;;;;;;;5.10;4.60;;;21.90;99.90;;;;;;5024265;28;20429;-76
2021/07/20 11:37:12;;;;;;;4.93;4.50;;;22.20;99.90;;;;;;5025199;28;20424;-76
2021/07/20 11:39:48;;;;;;;4.30;3.83;;;22.50;99.90;;;;;;5017879;28;20524;-76
2021/07/20 11:42:34;;;;;;;5.80;4.00;;;22.60;99.90;;;;;;5022476;28;20428;-76
2021/07/20 11:45:04;;;;;;;4.17;3.83;;;22.80;99.90;;;;;;5027900;28;20428;-77
2021/07/20 11:47:31;;;;;;;6.40;4.73;;;23.00;99.90;;;;;;5026252;28;20429;-76
2021/07/20 11:50:12;;;;;;;4.03;3.73;;;23.10;99.90;;;;;;5022761;28;20964;-76
2021/07/20 11:52:47;;;;;;;3.77;3.37;;;23.60;99.90;;;;;;5027269;28;20456;-76
2021/07/20 11:55:54;;;;;;;4.97;4.33;;;23.90;99.90;;;;;;5028528;28;20909;-76
2021/07/20 11:58:49;;;;;;;6.70;4.57;;;24.60;99.90;;;;;;5020921;28;20437;-76
2021/07/20 12:01:52;;;;;;;5.53;5.03;;;24.70;99.90;;;;;;5022129;28;20741;-76
2021/07/20 12:04:40;;;;;;;4.80;4.03;;;24.30;99.90;;;;;;5026386;28;20424;-76
2021/07/20 12:07:37;;;;;;;4.90;4.50;;;23.80;99.90;;;;;;5029719;28;20439;-76
2021/07/20 12:10:29;;;;;;;9.30;4.40;;;23.50;99.90;;;;;;5013106;28;20757;-76
2021/07/20 12:12:56;;;;;;;5.87;5.27;;;23.40;99.90;;;;;;5011623;28;20449;-76
2021/07/20 12:15:25;;;;;;;6.27;4.57;;;23.30;99.90;;;;;;5022852;28;20447;-76
2021/07/20 12:17:52;;;;;;;6.03;4.27;;;23.30;99.90;;;;;;5024910;28;20432;-76
2021/07/20 12:20:21;;;;;;;4.60;3.97;;;23.20;99.90;;;;;;5022233;28;20578;-76
2021/07/20 12:22:52;;;;;;;6.40;5.00;;;23.40;99.90;;;;;;5023327;28;20434;-76
2021/07/20 12:25:19;;;;;;;4.10;3.70;;;23.30;99.90;;;;;;5027378;28;20447;-76
2021/07/20 12:27:48;;;;;;;4.23;3.77;;;23.30;99.90;;;;;;5027801;28;20902;-77
2021/07/20 12:30:18;;;;;;;5.30;4.30;;;23.30;99.90;;;;;;5021849;28;20440;-76
2021/07/20 12:32:45;;;;;;;5.13;4.47;;;23.00;99.90;;;;;;5021248;28;20924;-76
2021/07/20 12:35:13;;;;;;;5.33;4.60;;;22.70;99.90;;;;;;5021363;28;20453;-76
2021/07/20 12:37:40;;;;;;;5.27;4.77;;;22.40;99.90;;;;;;5021507;28;20535;-76
2021/07/20 12:40:08;;;;;;;6.20;4.73;;;22.50;99.90;;;;;;5024142;28;20510;-75
2021/07/20 12:42:40;;;;;;;5.43;4.93;;;22.70;99.90;;;;;;5022458;28;20432;-75
2021/07/20 12:45:09;;;;;;;5.50;4.83;;;23.00;99.90;;;;;;5027145;28;20440;-75
2021/07/20 12:47:52;;;;;;;10.10;5.70;;;22.80;99.90;;;;;;5023956;28;20487;-75
2021/07/20 12:50:20;;;;;;;14.90;5.73;;;23.10;99.90;;;;;;5019032;28;20444;-75
2021/07/20 12:52:49;;;;;;;7.67;5.80;;;23.10;99.90;;;;;;5020077;28;20453;-76
2021/07/20 12:55:20;;;;;;;5.70;4.93;;;23.10;99.90;;;;;;5020834;28;20424;-76
2021/07/20 12:57:52;;;;;;;6.57;5.77;;;22.80;99.90;;;;;;5026770;28;20425;-76
2021/07/20 13:00:22;;;;;;;6.73;5.07;;;22.50;99.90;;;;;;5027462;28;20429;-75
2021/07/20 13:02:50;;;;;;;6.43;4.57;;;22.00;99.90;;;;;;5026022;28;20765;-75
2021/07/20 13:05:17;;;;;;;5.63;4.70;;;21.90;99.90;;;;;;5025119;28;20947;-75
2021/07/20 13:07:43;;;;;;;4.40;4.00;;;22.00;99.90;;;;;;5024540;28;20441;-76
2021/07/20 13:10:10;;;;;;;6.07;4.77;;;22.10;99.90;;;;;;5026543;28;20429;-75